Time;durP1;ratioP1;P1;durP2;ratioP2;P2;SDS_P1;SDS_P2;PMS_P1;PMS_P2;Temp;Humidity;BMP_temperature;BMP_pressure;BME280_temperature;BME280_humidity;BME280_pressure;Samples;Min_cycle;Max_cycle;Signal;HPM_P1;HPM_P2
2022/08/31 00:05:37;;;;;;;6.35;4.20;;;;;;;22.24;76.71;98360.91;5040730;28;20067;-64
2022/08/31 00:08:03;;;;;;;6.65;3.80;;;;;;;22.32;76.26;98359.00;5038068;28;20134;-56
2022/08/31 00:10:28;;;;;;;7.45;4.30;;;;;;;22.35;75.85;98361.19;5020534;28;20442;-57
2022/08/31 00:12:54;;;;;;;6.85;4.10;;;;;;;22.38;76.49;98361.56;5020187;28;20251;-58
2022/08/31 00:15:21;;;;;;;5.95;4.20;;;;;;;22.44;76.41;98365.94;5032281;28;20021;-57
2022/08/31 00:17:47;;;;;;;6.00;4.10;;;;;;;22.48;76.16;98357.53;5042120;28;20032;-57
2022/08/31 00:20:14;;;;;;;5.50;3.88;;;;;;;22.42;76.41;98354.75;5036581;28;20040;-57
2022/08/31 00:22:40;;;;;;;6.60;4.13;;;;;;;22.42;76.64;98353.97;4976304;28;22727;-60
2022/08/31 00:25:06;;;;;;;6.03;3.97;;;;;;;22.30;77.68;98353.91;5002760;28;20056;-59
2022/08/31 00:27:31;;;;;;;6.95;4.20;;;;;;;22.31;77.22;98354.75;5037611;28;20025;-58
2022/08/31 00:29:57;;;;;;;6.43;4.15;;;;;;;22.14;77.66;98357.19;5021492;28;20021;-58
2022/08/31 00:32:22;;;;;;;7.00;4.18;;;;;;;21.81;78.61;98321.41;5032275;28;20710;-58
2022/08/31 00:34:47;;;;;;;6.03;4.18;;;;;;;22.08;78.84;98345.66;5040904;28;20474;-59
2022/08/31 00:37:13;;;;;;;5.97;4.50;;;;;;;22.06;78.42;98321.25;5038255;28;20394;-57
2022/08/31 00:39:38;;;;;;;6.40;4.60;;;;;;;22.02;78.12;98312.97;5034188;28;20583;-58
2022/08/31 00:42:05;;;;;;;6.20;4.70;;;;;;;21.98;78.67;98332.97;5040469;28;20170;-57
2022/08/31 00:44:31;;;;;;;6.28;4.40;;;;;;;21.88;79.28;98338.00;5025499;28;20032;-59
2022/08/31 00:46:56;;;;;;;6.25;4.28;;;;;;;21.83;79.36;98338.69;5035381;28;20036;-58
2022/08/31 00:49:27;;;;;;;6.30;4.60;;;;;;;21.93;78.98;98342.63;5037233;28;20036;-59
2022/08/31 00:52:08;;;;;;;6.60;4.28;;;;;;;21.97;78.91;98334.00;5019569;28;20048;-59
2022/08/31 00:54:38;;;;;;;7.40;4.60;;;;;;;21.93;79.15;98330.19;5039074;28;20037;-60
2022/08/31 00:57:04;;;;;;;6.00;4.25;;;;;;;21.81;79.39;98330.16;5021813;28;20566;-58
2022/08/31 00:59:29;;;;;;;8.00;4.60;;;;;;;21.87;79.26;98331.09;5042952;28;20094;-60
2022/08/31 01:01:55;;;;;;;8.73;4.60;;;;;;;21.85;79.25;98333.19;5035530;28;20649;-59
2022/08/31 01:04:20;;;;;;;6.80;4.60;;;;;;;21.82;78.97;98333.59;4962287;28;20484;-60
2022/08/31 01:06:47;;;;;;;7.45;4.90;;;;;;;21.76;79.31;98324.72;5032534;28;20029;-59
2022/08/31 01:09:12;;;;;;;7.13;4.82;;;;;;;21.59;79.89;98315.78;5037776;28;20140;-61
2022/08/31 01:11:39;;;;;;;7.03;4.82;;;;;;;21.60;79.91;98320.06;5033287;28;20746;-59
2022/08/31 01:14:07;;;;;;;7.60;4.47;;;;;;;21.57;80.14;98312.56;5035943;28;20028;-58
2022/08/31 01:16:37;;;;;;;8.95;4.85;;;;;;;21.66;79.59;98313.88;5034428;28;20907;-61
2022/08/31 01:19:05;;;;;;;6.65;4.68;;;;;;;21.61;80.09;98309.25;5019334;28;20032;-59
2022/08/31 01:21:40;;;;;;;7.60;4.65;;;;;;;21.48;80.07;98278.50;5039410;28;20623;-60
2022/08/31 01:24:06;;;;;;;7.22;4.65;;;;;;;21.72;79.51;98312.97;4932845;28;20041;-61
2022/08/31 01:26:32;;;;;;;7.60;4.97;;;;;;;21.66;79.90;98305.94;5031500;28;20078;-58
2022/08/31 01:29:02;;;;;;;7.75;4.80;;;;;;;21.55;80.12;98301.41;5020904;28;20396;-60
2022/08/31 01:31:32;;;;;;;8.23;4.68;;;;;;;21.55;80.85;98311.97;5030372;28;20036;-58
2022/08/31 01:33:57;;;;;;;7.05;4.80;;;;;;;21.52;81.07;98309.78;5037452;28;20112;-59
2022/08/31 01:36:24;;;;;;;8.98;5.28;;;;;;;21.21;81.11;98271.88;5033042;28;20033;-58
2022/08/31 01:38:49;;;;;;;7.50;5.30;;;;;;;21.36;80.75;98290.03;5018874;28;20029;-61
2022/08/31 01:41:15;;;;;;;8.20;5.20;;;;;;;21.38;81.28;98299.34;5038042;28;20083;-61
2022/08/31 01:43:41;;;;;;;7.35;5.30;;;;;;;21.23;81.34;98281.22;5021540;28;20395;-59
2022/08/31 01:46:09;;;;;;;8.07;5.05;;;;;;;21.41;81.34;98301.53;5041218;28;20120;-60
2022/08/31 01:48:36;;;;;;;6.97;5.53;;;;;;;21.38;81.47;98293.25;5040650;28;20327;-58
2022/08/31 01:51:03;;;;;;;6.35;4.60;;;;;;;21.33;82.69;98301.84;5017975;28;20123;-62
2022/08/31 01:53:28;;;;;;;6.88;5.13;;;;;;;21.30;81.62;98305.75;5035460;28;20040;-60
2022/08/31 01:55:54;;;;;;;7.10;4.70;;;;;;;21.12;82.84;98295.16;5026160;28;20040;-60
2022/08/31 01:58:19;;;;;;;7.72;4.90;;;;;;;20.87;83.38;98277.53;5037030;28;20457;-58
2022/08/31 02:00:45;;;;;;;7.78;5.22;;;;;;;21.00;83.28;98295.09;5018567;28;20036;-59
2022/08/31 02:03:11;;;;;;;7.72;5.05;;;;;;;20.91;83.68;98293.75;5043317;28;20033;-58
2022/08/31 02:05:37;;;;;;;7.35;5.13;;;;;;;20.90;84.11;98297.41;5033533;28;20033;-59
2022/08/31 02:08:04;;;;;;;8.10;5.53;;;;;;;20.99;84.36;98295.28;5036216;28;20033;-60
2022/08/31 02:10:30;;;;;;;7.95;5.00;;;;;;;21.08;84.30;98304.56;5033450;28;20106;-59
2022/08/31 02:12:55;;;;;;;8.30;5.47;;;;;;;21.16;84.11;98295.53;5043648;28;20513;-58
2022/08/31 02:15:21;;;;;;;6.78;4.85;;;;;;;21.16;84.03;98301.63;5036281;28;20037;-58
2022/08/31 02:17:46;;;;;;;7.03;4.90;;;;;;;21.01;83.69;98261.53;5035621;28;20029;-56
2022/08/31 02:20:12;;;;;;;7.10;4.70;;;;;;;21.21;83.56;98299.13;5031045;28;20095;-57
2022/08/31 02:22:38;;;;;;;7.32;5.22;;;;;;;21.17;83.66;98289.22;4982351;28;20040;-57
2022/08/31 02:25:04;;;;;;;7.85;5.00;;;;;;;21.02;83.61;98257.88;5033900;28;20556;-59
2022/08/31 02:27:30;;;;;;;7.65;5.10;;;;;;;21.01;83.50;98250.94;5037694;28;20108;-60
2022/08/31 02:29:56;;;;;;;7.22;5.32;;;;;;;21.06;83.67;98266.97;5039534;28;20033;-59
2022/08/31 02:32:21;;;;;;;6.03;4.60;;;;;;;20.96;83.87;98246.34;5043012;28;20645;-58
2022/08/31 02:34:47;;;;;;;7.35;4.50;;;;;;;21.29;83.58;98275.03;5045879;28;20029;-58
2022/08/31 02:37:13;;;;;;;6.43;4.70;;;;;;;21.20;83.89;98283.50;5038435;28;20476;-59
2022/08/31 02:39:39;;;;;;;7.70;4.75;;;;;;;21.14;84.22;98274.63;5035030;28;20032;-60
2022/08/31 02:42:04;;;;;;;7.50;4.68;;;;;;;21.02;84.38;98274.53;5004020;28;20377;-60
2022/08/31 02:44:30;;;;;;;8.30;4.95;;;;;;;20.99;85.36;98277.63;4995371;28;20425;-57
2022/08/31 02:46:55;;;;;;;6.30;4.90;;;;;;;21.16;84.92;98279.69;5038340;28;20120;-60
2022/08/31 02:49:20;;;;;;;7.72;5.40;;;;;;;20.78;84.00;98235.78;5035941;28;20025;-60
2022/08/31 02:51:46;;;;;;;8.82;5.38;;;;;;;20.72;84.24;98263.88;5040769;28;20052;-59
2022/08/31 02:54:12;;;;;;;9.35;6.03;;;;;;;20.64;84.58;98264.94;5040936;28;20040;-57
2022/08/31 02:56:38;;;;;;;7.68;5.65;;;;;;;20.62;85.06;98276.78;5038120;28;20029;-59
2022/08/31 02:59:04;;;;;;;7.97;5.30;;;;;;;20.65;84.83;98277.16;5038859;28;20025;-60
2022/08/31 03:01:29;;;;;;;6.38;4.95;;;;;;;20.68;84.45;98278.53;5036946;28;20053;-58
2022/08/31 03:03:55;;;;;;;7.38;5.35;;;;;;;20.64;83.92;98258.88;4978088;28;20541;-58
2022/08/31 03:06:21;;;;;;;6.80;4.85;;;;;;;20.87;83.41;98277.53;5024212;28;20032;-59
2022/08/31 03:08:47;;;;;;;8.32;4.85;;;;;;;20.92;83.19;98282.97;5020195;28;20065;-59
2022/08/31 03:11:13;;;;;;;7.07;4.90;;;;;;;20.92;83.32;98284.81;5038894;28;20115;-59
2022/08/31 03:13:39;;;;;;;7.10;5.03;;;;;;;20.85;83.59;98289.34;5038421;28;20064;-57
2022/08/31 03:16:06;;;;;;;7.00;4.93;;;;;;;20.83;83.25;98294.06;5024451;28;20778;-59
2022/08/31 03:18:32;;;;;;;8.25;5.70;;;;;;;20.81;82.74;98294.28;5039676;28;20403;-60
2022/08/31 03:20:58;;;;;;;7.88;4.97;;;;;;;20.74;83.42;98296.97;5041895;28;20033;-56
2022/08/31 03:23:23;;;;;;;7.93;5.32;;;;;;;20.48;83.55;98268.13;5025961;28;20033;-58
2022/08/31 03:25:48;;;;;;;8.32;5.30;;;;;;;20.53;83.42;98258.53;5033865;28;20121;-57
2022/08/31 03:28:14;;;;;;;8.38;5.03;;;;;;;20.75;83.37;98289.84;5033430;28;20481;-58
2022/08/31 03:30:40;;;;;;;7.70;5.32;;;;;;;20.73;83.19;98284.78;5032913;28;20021;-61
2022/08/31 03:33:06;;;;;;;8.02;5.68;;;;;;;20.75;83.29;98287.19;5040107;28;20067;-61
2022/08/31 03:35:31;;;;;;;8.95;5.60;;;;;;;20.73;83.49;98284.78;5038749;28;20536;-56
2022/08/31 03:37:57;;;;;;;7.25;5.15;;;;;;;20.75;83.20;98284.56;5033405;28;20029;-57
2022/08/31 03:40:22;;;;;;;7.65;5.35;;;;;;;20.69;82.98;98286.25;5074155;28;20060;-58
2022/08/31 03:42:48;;;;;;;9.57;5.57;;;;;;;20.70;82.96;98279.16;5035225;28;20029;-58
2022/08/31 03:45:14;;;;;;;7.22;4.90;;;;;;;20.63;83.11;98278.41;4949961;28;20059;-58
2022/08/31 03:47:40;;;;;;;9.70;5.38;;;;;;;20.63;83.95;98287.13;5033486;28;20640;-61
2022/08/31 03:50:09;;;;;;;9.93;5.40;;;;;;;20.60;83.69;98278.78;5040581;28;20043;-58
2022/08/31 03:52:34;;;;;;;7.05;5.05;;;;;;;20.44;84.71;98283.59;5031796;28;20678;-59
2022/08/31 03:55:00;;;;;;;9.55;5.82;;;;;;;20.38;84.95;98281.03;5016059;28;20040;-58
2022/08/31 03:57:26;;;;;;;8.07;5.47;;;;;;;20.38;84.95;98284.47;5032103;28;20404;-60
2022/08/31 03:59:56;;;;;;;7.82;5.60;;;;;;;20.45;84.46;98287.84;5008724;28;20442;-57
2022/08/31 04:02:22;;;;;;;8.57;5.40;;;;;;;20.55;84.37;98295.28;5039560;28;20028;-57
2022/08/31 04:04:52;;;;;;;8.65;6.05;;;;;;;20.52;83.97;98290.44;5036169;28;20045;-60
2022/08/31 04:07:19;;;;;;;8.88;5.82;;;;;;;20.51;84.51;98294.91;5020272;28;20833;-58
2022/08/31 04:09:45;;;;;;;7.78;5.72;;;;;;;20.46;84.39;98294.75;5034893;28;20044;-58
2022/08/31 04:12:10;;;;;;;10.50;6.50;;;;;;;20.24;84.43;98259.19;5017415;28;20061;-60
2022/08/31 04:14:36;;;;;;;8.82;6.18;;;;;;;20.53;83.85;98294.69;5035819;28;20043;-59
2022/08/31 04:17:01;;;;;;;9.30;5.95;;;;;;;20.20;84.67;98258.00;5033922;28;20361;-57
2022/08/31 04:19:27;;;;;;;8.10;5.88;;;;;;;20.45;84.75;98298.41;5039219;28;20045;-59
2022/08/31 04:21:54;;;;;;;13.75;7.53;;;;;;;20.15;85.20;98270.03;4975364;28;20029;-57
2022/08/31 04:24:20;;;;;;;13.35;5.57;;;;;;;20.30;84.28;98269.72;5022298;28;20043;-59
2022/08/31 04:26:45;;;;;;;10.65;5.88;;;;;;;20.55;83.70;98305.84;5026686;28;20037;-59
2022/08/31 04:29:11;;;;;;;11.13;6.15;;;;;;;20.35;84.92;98300.72;5032296;28;20034;-60
2022/08/31 04:31:36;;;;;;;9.88;6.10;;;;;;;20.34;84.88;98304.41;5031462;28;20037;-57
2022/08/31 04:34:03;;;;;;;9.13;6.05;;;;;;;20.34;84.39;98304.41;5037275;28;20033;-58
2022/08/31 04:36:28;;;;;;;9.73;6.13;;;;;;;20.40;84.61;98308.00;5031480;28;20152;-57
2022/08/31 04:38:57;;;;;;;9.20;5.90;;;;;;;20.42;84.17;98298.03;5039067;28;20100;-60
2022/08/31 04:41:24;;;;;;;9.32;5.97;;;;;;;20.27;84.55;98277.25;5035528;28;20041;-58
2022/08/31 04:43:51;;;;;;;9.30;6.10;;;;;;;20.49;83.95;98314.63;4939671;28;20158;-58
2022/08/31 04:46:18;;;;;;;9.50;6.07;;;;;;;20.32;84.08;98282.69;5038884;28;20220;-59
2022/08/31 04:48:43;;;;;;;10.10;5.85;;;;;;;20.46;84.15;98309.78;5032631;28;20045;-58
2022/08/31 04:51:12;;;;;;;9.25;6.05;;;;;;;20.46;84.55;98307.97;5038366;28;20056;-58
2022/08/31 04:53:38;;;;;;;9.20;6.10;;;;;;;20.27;84.09;98278.03;5035274;28;20051;-58
2022/08/31 04:56:13;;;;;;;9.02;6.10;;;;;;;20.50;83.79;98318.91;5035396;28;20562;-60
2022/08/31 04:58:44;;;;;;;7.80;5.68;;;;;;;20.54;84.46;98322.72;5030726;28;20037;-60
2022/08/31 05:01:12;;;;;;;9.18;6.22;;;;;;;20.54;83.58;98312.16;5024892;28;20025;-58
2022/08/31 05:03:38;;;;;;;7.88;5.95;;;;;;;20.57;83.75;98319.63;5018459;28;20055;-59
2022/08/31 05:06:04;;;;;;;8.15;5.78;;;;;;;20.50;84.12;98319.72;5028518;28;20033;-58
2022/08/31 05:08:29;;;;;;;7.13;5.32;;;;;;;20.65;82.31;98319.41;5033370;28;20051;-59
2022/08/31 05:10:55;;;;;;;9.93;5.32;;;;;;;20.61;82.04;98318.22;5031237;28;20705;-60
2022/08/31 05:13:21;;;;;;;8.75;5.45;;;;;;;20.53;82.74;98324.56;5028841;28;20033;-62
2022/08/31 05:15:46;;;;;;;10.00;5.20;;;;;;;20.53;83.39;98329.84;5039738;28;20025;-58
2022/08/31 05:18:12;;;;;;;8.98;5.82;;;;;;;20.45;83.66;98327.47;5030874;28;20396;-59
2022/08/31 05:20:38;;;;;;;10.45;6.18;;;;;;;20.60;83.07;98326.34;5025727;28;20094;-59
2022/08/31 05:23:04;;;;;;;9.20;6.20;;;;;;;20.60;82.75;98319.22;5031332;28;20044;-58
2022/08/31 05:25:30;;;;;;;7.78;5.88;;;;;;;20.77;82.22;98327.41;5029770;28;20113;-61
2022/08/31 05:27:56;;;;;;;8.85;5.80;;;;;;;20.75;82.08;98321.53;5050425;28;20126;-58
2022/08/31 05:30:22;;;;;;;9.65;5.82;;;;;;;20.69;81.35;98312.66;5028605;28;20485;-59
2022/08/31 05:32:47;;;;;;;8.88;5.63;;;;;;;20.85;81.63;98332.44;5037489;28;20107;-60
2022/08/31 05:35:12;;;;;;;7.45;4.95;;;;;;;20.86;79.96;98331.41;5028315;28;20441;-58
2022/08/31 05:37:38;;;;;;;7.18;4.90;;;;;;;20.70;79.25;98309.00;5016343;28;20043;-58
2022/08/31 05:40:05;;;;;;;7.35;5.10;;;;;;;20.91;79.63;98336.03;5014482;28;20029;-61
2022/08/31 05:42:30;;;;;;;9.57;5.90;;;;;;;20.90;80.89;98344.97;5035865;28;20435;-59
2022/08/31 05:44:56;;;;;;;8.80;6.20;;;;;;;20.96;81.02;98359.97;5020275;28;20110;-60
2022/08/31 05:47:21;;;;;;;10.70;6.47;;;;;;;20.68;81.59;98323.44;5040207;28;20860;-60
2022/08/31 05:49:46;;;;;;;9.05;6.18;;;;;;;20.86;81.88;98355.19;5048237;28;20094;-59
2022/08/31 05:52:12;;;;;;;9.98;6.32;;;;;;;20.83;82.16;98366.19;4952884;28;20041;-59
2022/08/31 05:54:39;;;;;;;9.52;6.47;;;;;;;20.88;82.29;98362.88;5042205;28;20017;-58
2022/08/31 05:57:04;;;;;;;10.43;6.15;;;;;;;21.03;82.16;98371.31;5032953;28;20068;-59
2022/08/31 05:59:30;;;;;;;11.98;6.93;;;;;;;21.02;81.63;98374.16;5034885;28;20095;-59
2022/08/31 06:01:56;;;;;;;9.55;6.07;;;;;;;21.05;81.42;98360.50;5038339;28;20581;-59
2022/08/31 06:04:21;;;;;;;8.43;6.22;;;;;;;21.02;81.97;98366.22;5042099;28;20033;-59
2022/08/31 06:06:47;;;;;;;10.15;6.20;;;;;;;21.23;81.17;98365.81;5040593;28;20116;-61
2022/08/31 06:09:12;;;;;;;11.88;6.15;;;;;;;21.18;81.72;98368.31;5033402;28;20343;-58
2022/08/31 06:11:40;;;;;;;10.07;6.75;;;;;;;21.14;82.07;98369.78;5031999;28;20529;-61
2022/08/31 06:14:08;;;;;;;9.88;6.68;;;;;;;21.19;81.38;98377.03;5023035;28;20087;-57
2022/08/31 06:16:34;;;;;;;9.07;6.15;;;;;;;21.29;81.56;98382.63;5036871;28;20138;-57
2022/08/31 06:19:02;;;;;;;8.77;6.20;;;;;;;21.18;81.29;98376.22;5032713;28;20056;-57
2022/08/31 06:21:29;;;;;;;11.30;6.40;;;;;;;21.15;81.23;98371.38;5032987;28;20033;-57
2022/08/31 06:23:56;;;;;;;7.72;6.10;;;;;;;21.13;80.82;98382.16;5037308;28;20286;-61
2022/08/31 06:26:23;;;;;;;9.18;6.53;;;;;;;21.22;80.65;98389.81;5043162;28;20033;-58
2022/08/31 06:28:51;;;;;;;8.80;6.38;;;;;;;21.15;81.27;98368.72;5016097;28;20134;-57
2022/08/31 06:31:29;;;;;;;7.82;5.78;;;;;;;21.25;81.12;98387.56;5034290;28;20751;-59
2022/08/31 06:33:56;;;;;;;8.73;6.78;;;;;;;21.25;80.13;98392.84;4966805;28;20095;-57
2022/08/31 06:36:24;;;;;;;12.63;7.00;;;;;;;21.34;80.55;98393.38;5031395;28;20021;-57
2022/08/31 06:38:49;;;;;;;9.88;6.43;;;;;;;21.11;80.28;98349.84;5047485;28;20028;-59
2022/08/31 06:41:16;;;;;;;8.52;6.10;;;;;;;21.42;79.63;98400.19;5025534;28;20022;-57
2022/08/31 06:43:42;;;;;;;9.18;6.35;;;;;;;21.45;79.30;98387.38;5041443;28;20534;-57
2022/08/31 06:46:08;;;;;;;9.38;6.35;;;;;;;21.48;79.37;98397.53;5022098;28;20037;-60
2022/08/31 06:48:34;;;;;;;10.18;6.22;;;;;;;21.62;79.22;98402.66;5038802;28;20029;-59
2022/08/31 06:51:00;;;;;;;8.38;5.70;;;;;;;21.64;78.94;98395.28;5033244;28;20091;-59
2022/08/31 06:53:25;;;;;;;8.63;5.93;;;;;;;21.68;78.08;98399.09;5024684;28;20045;-59
2022/08/31 06:55:51;;;;;;;7.32;4.65;;;;;;;21.68;75.96;98392.00;5037113;28;20384;-56
2022/08/31 06:58:16;;;;;;;6.32;4.32;;;;;;;21.45;76.15;98365.41;5035378;28;20025;-60
2022/08/31 07:00:42;;;;;;;8.38;4.72;;;;;;;21.63;76.45;98396.31;5038283;28;20031;-58
2022/08/31 07:03:23;;;;;;;6.72;4.07;;;;;;;21.64;76.04;98400.59;5036425;28;20086;-57
2022/08/31 07:05:51;;;;;;;8.02;4.47;;;;;;;21.66;76.12;98390.59;5041001;28;20029;-58
2022/08/31 07:08:16;;;;;;;6.53;4.70;;;;;;;21.75;76.10;98399.03;5031334;28;20073;-60
2022/08/31 07:10:42;;;;;;;7.05;4.90;;;;;;;21.65;76.39;98400.38;5037523;28;20027;-58
2022/08/31 07:13:07;;;;;;;11.57;5.55;;;;;;;21.73;76.53;98395.81;4950013;28;20018;-58
2022/08/31 07:15:33;;;;;;;8.23;5.57;;;;;;;21.70;76.00;98362.66;5035834;28;20024;-59
2022/08/31 07:17:58;;;;;;;9.65;5.28;;;;;;;21.91;75.36;98390.50;5035919;28;20040;-58
2022/08/31 07:20:23;;;;;;;8.00;5.57;;;;;;;21.97;75.04;98386.13;5028216;28;20364;-58
2022/08/31 07:22:49;;;;;;;10.00;5.35;;;;;;;22.01;75.01;98382.84;5032501;28;20025;-59
2022/08/31 07:25:16;;;;;;;7.63;4.88;;;;;;;21.96;75.28;98371.28;5042701;28;20104;-58
2022/08/31 07:27:43;;;;;;;8.25;5.60;;;;;;;22.03;75.05;98364.06;5033006;28;20473;-60
2022/08/31 07:30:09;;;;;;;7.97;5.45;;;;;;;22.12;74.48;98369.84;5034630;28;20085;-59
2022/08/31 07:32:34;;;;;;;6.53;5.00;;;;;;;22.25;74.55;98380.25;4957389;28;20732;-60
2022/08/31 07:35:00;;;;;;;8.18;4.90;;;;;;;22.12;73.48;98348.66;5036818;28;20119;-62
2022/08/31 07:42:54;;;;;;;6.40;4.03;;;;;;;22.18;71.49;98345.13;5036139;28;20078;-58
2022/08/31 07:45:22;;;;;;;7.35;4.00;;;;;;;22.42;71.36;98375.94;5039834;28;20029;-59
2022/08/31 07:47:48;;;;;;;6.18;3.80;;;;;;;22.44;71.39;98383.69;5041149;28;20032;-58
2022/08/31 07:50:15;;;;;;;6.22;4.20;;;;;;;22.60;70.89;98383.00;5040363;28;20048;-59
2022/08/31 07:52:47;;;;;;;7.20;4.20;;;;;;;22.37;71.20;98346.69;5011556;28;20033;-59
2022/08/31 07:55:15;;;;;;;7.47;4.65;;;;;;;22.49;71.66;98388.28;5026302;28;20079;-59
2022/08/31 07:57:43;;;;;;;6.38;4.25;;;;;;;22.56;72.16;98386.34;5033869;28;20036;-60
2022/08/31 08:00:39;;;;;;;8.13;4.57;;;;;;;22.45;71.52;98385.28;5039278;28;20009;-59
2022/08/31 08:03:09;;;;;;;6.30;4.45;;;;;;;22.49;71.48;98396.22;5036296;28;20029;-59
2022/08/31 08:05:37;;;;;;;6.82;4.35;;;;;;;22.49;72.00;98390.94;5035822;28;20524;-59
2022/08/31 08:08:06;;;;;;;7.40;4.65;;;;;;;22.61;71.31;98399.72;5006719;28;20072;-58
2022/08/31 08:10:32;;;;;;;8.13;4.68;;;;;;;22.54;70.98;98352.13;5040226;28;20089;-59
2022/08/31 08:13:02;;;;;;;7.75;4.82;;;;;;;22.57;70.54;98361.47;4950385;28;20992;-58
2022/08/31 08:15:28;;;;;;;9.63;6.00;;;;;;;22.61;69.78;98387.25;5029487;28;20052;-57
2022/08/31 08:17:54;;;;;;;7.32;4.25;;;;;;;22.56;69.72;98376.56;5026886;28;20112;-59
2022/08/31 08:20:19;;;;;;;6.88;4.00;;;;;;;22.72;69.97;98383.03;5032279;28;20100;-58
2022/08/31 08:22:45;;;;;;;7.32;4.40;;;;;;;22.72;69.41;98375.06;5043349;28;20085;-58
2022/08/31 08:25:11;;;;;;;7.35;4.20;;;;;;;22.88;69.04;98376.25;5033126;28;20041;-59
2022/08/31 08:27:37;;;;;;;7.25;4.05;;;;;;;22.88;68.75;98373.59;5037657;28;20624;-59
2022/08/31 08:30:05;;;;;;;5.50;3.72;;;;;;;22.80;68.65;98388.00;5043233;28;20033;-57
2022/08/31 08:32:30;;;;;;;7.35;4.13;;;;;;;22.78;68.14;98386.59;5024960;28;20140;-58
2022/08/31 08:34:56;;;;;;;6.20;3.70;;;;;;;22.77;67.90;98359.28;5037731;28;20396;-60
2022/08/31 08:37:21;;;;;;;5.38;3.60;;;;;;;22.76;68.18;98372.75;5031025;28;20036;-62
2022/08/31 08:39:48;;;;;;;7.43;3.70;;;;;;;22.92;67.42;98400.44;5021825;28;20025;-59
2022/08/31 08:42:14;;;;;;;7.35;3.60;;;;;;;23.17;66.82;98408.22;5030801;28;20048;-59
2022/08/31 08:44:41;;;;;;;6.05;3.30;;;;;;;23.09;66.95;98412.00;5033780;28;20083;-60
2022/08/31 08:47:13;;;;;;;6.68;3.65;;;;;;;23.12;66.46;98411.53;5037969;28;20380;-59
2022/08/31 08:49:55;;;;;;;6.35;3.40;;;;;;;23.12;66.58;98419.50;5031845;28;20422;-58
2022/08/31 08:52:27;;;;;;;7.18;3.33;;;;;;;22.90;67.06;98389.25;5017227;28;20036;-59
2022/08/31 08:54:55;;;;;;;6.50;3.63;;;;;;;23.08;66.24;98417.53;5037222;28;20017;-58
2022/08/31 08:57:29;;;;;;;5.97;3.20;;;;;;;23.11;66.54;98420.53;5062932;28;20035;-59
2022/08/31 08:59:58;;;;;;;5.38;3.28;;;;;;;23.11;66.26;98423.19;5025320;28;20024;-60
2022/08/31 09:02:48;;;;;;;6.05;3.70;;;;;;;23.03;65.79;98416.34;5031609;28;20032;-59
2022/08/31 09:05:38;;;;;;;5.57;3.53;;;;;;;23.08;65.74;98417.53;5029709;28;20041;-61
2022/08/31 09:08:31;;;;;;;6.75;3.40;;;;;;;23.03;66.06;98421.63;5038166;28;20502;-60
2022/08/31 09:11:05;;;;;;;5.40;3.08;;;;;;;23.10;66.04;98410.97;5026652;28;20021;-58
2022/08/31 09:13:51;;;;;;;6.90;2.92;;;;;;;23.11;66.07;98409.94;4958494;28;20765;-62
2022/08/31 09:16:27;;;;;;;7.47;3.08;;;;;;;23.28;65.33;98407.38;5031920;28;20040;-59
2022/08/31 09:18:57;;;;;;;5.90;3.03;;;;;;;23.49;64.87;98398.03;5036880;28;20032;-57
2022/08/31 09:21:29;;;;;;;6.22;3.38;;;;;;;23.41;64.27;98379.81;5036035;28;20023;-57
2022/08/31 09:24:10;;;;;;;7.18;3.40;;;;;;;23.44;64.39;98383.81;5040562;28;20083;-59
2022/08/31 09:27:17;;;;;;;6.68;3.20;;;;;;;23.39;64.73;98390.63;5048952;28;20029;-60
2022/08/31 09:29:52;;;;;;;5.93;3.05;;;;;;;23.31;65.02;98355.69;5036282;28;20029;-57
2022/08/31 09:32:24;;;;;;;5.65;3.33;;;;;;;23.49;64.69;98371.50;5022337;28;20091;-59
2022/08/31 09:35:00;;;;;;;6.20;3.50;;;;;;;23.42;65.07;98361.00;5019311;28;20051;-58
2022/08/31 09:37:44;;;;;;;5.95;3.10;;;;;;;23.60;63.91;98362.69;5031514;28;20030;-60
2022/08/31 09:40:22;;;;;;;6.85;3.60;;;;;;;23.49;65.05;98379.47;5035462;28;20090;-59
2022/08/31 09:43:08;;;;;;;6.63;3.40;;;;;;;23.52;65.16;98365.69;5032419;28;20029;-59
2022/08/31 09:45:35;;;;;;;4.85;3.00;;;;;;;23.41;65.26;98334.69;5032876;28;20033;-59
2022/08/31 09:48:03;;;;;;;7.75;3.60;;;;;;;23.59;65.26;98361.06;5026950;28;20029;-59
2022/08/31 09:50:43;;;;;;;6.18;3.42;;;;;;;23.65;64.75;98351.34;5027916;28;20038;-59
2022/08/31 09:56:14;;;;;;;6.60;3.75;;;;;;;23.48;64.46;98314.16;5039559;28;20102;-60
2022/08/31 09:58:51;;;;;;;6.20;3.95;;;;;;;23.84;64.27;98337.94;5036052;28;20029;-59
2022/08/31 10:01:34;;;;;;;6.15;3.72;;;;;;;23.92;64.42;98330.41;5033892;28;20808;-58
2022/08/31 10:04:24;;;;;;;5.97;3.45;;;;;;;23.96;63.85;98326.22;5021739;28;20032;-60
2022/08/31 10:06:57;;;;;;;5.95;3.63;;;;;;;24.03;63.31;98310.13;5040569;28;20391;-59
2022/08/31 10:09:29;;;;;;;8.70;3.90;;;;;;;24.06;63.21;98314.97;5040595;28;20508;-62
2022/08/31 10:11:56;;;;;;;6.38;3.65;;;;;;;24.15;62.85;98318.06;5012848;28;20594;-62
2022/08/31 10:14:49;;;;;;;6.10;3.67;;;;;;;24.22;61.74;98310.72;4999569;28;20024;-59
2022/08/31 10:17:25;;;;;;;5.95;3.70;;;;;;;24.14;61.33;98282.69;5030807;28;20143;-58
2022/08/31 10:20:29;;;;;;;6.20;3.63;;;;;;;24.32;60.98;98300.25;5037697;28;20029;-62
2022/08/31 10:23:04;;;;;;;6.47;3.90;;;;;;;24.24;61.68;98289.22;5034678;28;20029;-58
2022/08/31 10:25:56;;;;;;;6.60;3.55;;;;;;;24.20;61.21;98290.75;5034639;28;20041;-60
2022/08/31 10:28:49;;;;;;;5.53;3.70;;;;;;;24.22;61.29;98305.41;5021456;28;20056;-59
2022/08/31 10:31:22;;;;;;;5.80;3.75;;;;;;;24.36;61.54;98288.09;5035007;28;20021;-58
2022/08/31 10:37:08;;;;;;;6.25;3.80;;;;;;;24.53;59.59;98284.66;5034301;28;20041;-62
2022/08/31 10:39:40;;;;;;;5.65;3.85;;;;;;;24.56;60.42;98284.97;5022639;28;20048;-59
2022/08/31 10:42:10;;;;;;;6.07;4.03;;;;;;;24.78;58.90;98278.09;5034339;28;20024;-60
2022/08/31 10:44:51;;;;;;;6.00;3.42;;;;;;;24.90;58.84;98276.16;5031828;28;20113;-60
2022/08/31 10:47:17;;;;;;;6.43;3.50;;;;;;;24.93;59.27;98270.31;5030147;28;20525;-58
2022/08/31 10:49:42;;;;;;;6.47;3.88;;;;;;;24.95;58.36;98260.22;5030959;28;20064;-61
2022/08/31 10:52:20;;;;;;;5.55;3.55;;;;;;;24.98;58.98;98264.28;4966956;28;20149;-60
2022/08/31 10:55:08;;;;;;;6.47;3.65;;;;;;;25.06;58.89;98258.50;5027171;28;20056;-60
2022/08/31 10:57:44;;;;;;;6.20;3.90;;;;;;;25.11;58.90;98253.25;5028384;28;20037;-60
2022/08/31 11:03:21;;;;;;;6.65;3.70;;;;;;;25.17;58.59;98238.16;5056369;28;20127;-59
2022/08/31 11:06:05;;;;;;;8.25;3.92;;;;;;;25.00;58.29;98201.00;5030787;28;20044;-59
2022/08/31 11:08:56;;;;;;;6.15;3.38;;;;;;;25.28;57.62;98235.41;5032622;28;20379;-62
2022/08/31 11:11:34;;;;;;;5.70;3.45;;;;;;;25.40;57.41;98229.13;5037696;28;20021;-58
2022/08/31 11:14:21;;;;;;;6.57;3.30;;;;;;;25.46;57.79;98236.09;5021934;28;20567;-57
2022/08/31 11:16:54;;;;;;;6.32;3.67;;;;;;;25.28;57.31;98198.16;5028921;28;20037;-59
2022/08/31 11:19:31;;;;;;;6.85;3.50;;;;;;;25.58;56.72;98238.63;5028534;28;20029;-59
2022/08/31 11:22:01;;;;;;;5.45;3.65;;;;;;;25.50;56.24;98200.78;5033398;28;20032;-61
2022/08/31 11:25:06;;;;;;;6.28;3.33;;;;;;;25.86;55.09;98219.72;5035396;28;20032;-60
2022/08/31 11:27:56;;;;;;;7.68;3.65;;;;;;;25.85;55.46;98217.31;5038029;28;20124;-57
2022/08/31 11:30:26;;;;;;;5.38;3.42;;;;;;;25.87;55.33;98217.88;5028091;28;20021;-63
2022/08/31 11:32:56;;;;;;;5.47;3.75;;;;;;;25.80;55.37;98217.28;4996897;28;20422;-60
2022/08/31 11:35:56;;;;;;;6.40;3.67;;;;;;;25.90;55.97;98212.84;5029474;28;20029;-60
2022/08/31 11:39:13;;;;;;;6.32;3.55;;;;;;;26.02;55.38;98214.56;5025172;28;20065;-62
2022/08/31 11:41:49;;;;;;;5.78;3.70;;;;;;;25.98;54.32;98208.13;5026299;28;20021;-62
2022/08/31 11:44:30;;;;;;;6.85;3.65;;;;;;;25.97;54.10;98206.50;5046200;28;20455;-60
2022/08/31 11:47:11;;;;;;;5.68;3.15;;;;;;;25.98;54.35;98198.28;5037089;28;20030;-64
2022/08/31 11:49:50;;;;;;;6.30;3.75;;;;;;;25.90;54.18;98167.56;5032299;28;20659;-61
2022/08/31 11:52:33;;;;;;;5.83;3.53;;;;;;;26.13;53.74;98184.25;5012806;28;20842;-63
2022/08/31 11:55:01;;;;;;;6.88;3.45;;;;;;;26.24;53.33;98199.25;4949146;28;20283;-60
2022/08/31 11:57:31;;;;;;;5.28;3.25;;;;;;;25.86;52.93;98139.03;5019778;28;20115;-64
2022/08/31 11:59:57;;;;;;;7.32;3.00;;;;;;;26.26;53.42;98185.66;5010488;28;20054;-59
2022/08/31 12:02:22;;;;;;;5.03;3.30;;;;;;;26.35;52.81;98180.66;5026994;28;20031;-61